Time;durP1;ratioP1;P1;durP2;ratioP2;P2;SDS_P1;SDS_P2;PMS_P1;PMS_P2;Temp;Humidity;BMP_temperature;BMP_pressure;BME280_temperature;BME280_humidity;BME280_pressure;Samples;Min_cycle;Max_cycle;Signal;HPM_P1;HPM_P2
2021/08/22 00:02:10;;;;;;;18.93;7.30;;;17.10;99.90;;;;;;5001662;28;20418;-61
2021/08/22 00:04:36;;;;;;;9.60;6.87;;;17.00;99.90;;;;;;5012762;28;20431;-58
2021/08/22 00:07:05;;;;;;;11.37;6.97;;;16.90;99.90;;;;;;5015489;28;20434;-60
2021/08/22 00:09:50;;;;;;;11.90;6.73;;;16.90;99.90;;;;;;5015690;28;20184;-59
2021/08/22 00:12:19;;;;;;;9.90;6.40;;;16.90;99.90;;;;;;5020614;28;20994;-59
2021/08/22 00:14:58;;;;;;;10.60;6.70;;;17.00;99.90;;;;;;5012843;28;20430;-59
2021/08/22 00:17:26;;;;;;;10.50;6.77;;;17.00;99.90;;;;;;5015409;28;20394;-59
2021/08/22 00:19:52;;;;;;;11.23;7.00;;;17.10;99.90;;;;;;4998023;28;20431;-60
2021/08/22 00:22:23;;;;;;;11.43;6.60;;;17.10;99.90;;;;;;5015233;28;20411;-58
2021/08/22 00:24:49;;;;;;;10.10;6.50;;;17.00;99.90;;;;;;4997660;28;20604;-59
2021/08/22 00:27:26;;;;;;;9.73;6.10;;;17.00;99.90;;;;;;5016139;28;20894;-60
2021/08/22 00:29:57;;;;;;;11.30;6.37;;;17.00;99.90;;;;;;5016114;28;20163;-59
2021/08/22 00:32:26;;;;;;;15.30;6.73;;;17.00;99.90;;;;;;5008318;28;21055;-60
2021/08/22 00:35:03;;;;;;;8.30;6.27;;;17.00;99.90;;;;;;5002700;28;20427;-59
2021/08/22 00:37:29;;;;;;;8.77;7.17;;;17.10;99.90;;;;;;4994444;28;20447;-59
2021/08/22 00:40:02;;;;;;;10.90;6.53;;;17.10;99.90;;;;;;5008478;28;20431;-58
2021/08/22 00:42:42;;;;;;;10.57;6.50;;;17.10;99.90;;;;;;4975218;28;20424;-59
2021/08/22 00:45:14;;;;;;;9.00;6.97;;;17.10;99.90;;;;;;5006277;28;20934;-59
2021/08/22 00:47:46;;;;;;;9.10;7.17;;;17.20;99.90;;;;;;5012331;28;20470;-59
2021/08/22 00:50:16;;;;;;;8.47;6.93;;;17.20;99.90;;;;;;4992887;28;21024;-58
2021/08/22 00:52:53;;;;;;;10.23;6.70;;;17.20;99.90;;;;;;4995425;28;20459;-60
2021/08/22 00:55:29;;;;;;;8.73;5.70;;;17.20;99.90;;;;;;5011612;28;20418;-60
2021/08/22 00:58:24;;;;;;;8.63;6.10;;;17.20;99.90;;;;;;5010836;28;20521;-60
2021/08/22 01:01:04;;;;;;;9.77;6.13;;;17.30;99.90;;;;;;5012341;28;20408;-60
2021/08/22 01:04:08;;;;;;;11.57;6.20;;;17.40;99.90;;;;;;4994326;28;20408;-59
2021/08/22 01:07:01;;;;;;;19.87;8.13;;;17.40;99.90;;;;;;5009906;28;20423;-59
2021/08/22 01:09:43;;;;;;;8.73;6.90;;;17.50;99.90;;;;;;4989809;28;20460;-58
2021/08/22 01:12:27;;;;;;;13.10;7.30;;;17.50;99.90;;;;;;4994399;28;20479;-59
2021/08/22 01:15:06;;;;;;;13.80;7.10;;;17.50;99.90;;;;;;5011440;28;20427;-58
2021/08/22 01:17:40;;;;;;;9.63;7.23;;;17.60;99.90;;;;;;5011158;28;20423;-59
2021/08/22 01:20:40;;;;;;;10.43;6.60;;;17.50;99.90;;;;;;4992031;28;20421;-59
2021/08/22 01:23:10;;;;;;;8.60;6.70;;;17.60;99.90;;;;;;4969238;28;20508;-59
2021/08/22 01:25:48;;;;;;;13.13;7.40;;;17.60;99.90;;;;;;5011196;28;20777;-58
2021/08/22 01:28:26;;;;;;;9.97;6.57;;;17.60;99.90;;;;;;5006426;28;20967;-59
2021/08/22 01:31:01;;;;;;;10.77;7.23;;;17.60;99.90;;;;;;5014047;28;20418;-59
2021/08/22 01:33:36;;;;;;;9.60;7.23;;;17.60;99.90;;;;;;5014127;28;20423;-59
2021/08/22 01:36:24;;;;;;;10.77;6.83;;;17.60;99.90;;;;;;5002730;28;20447;-59
2021/08/22 01:38:58;;;;;;;10.50;6.53;;;17.70;99.90;;;;;;4991268;28;20539;-59
2021/08/22 01:41:31;;;;;;;11.43;6.97;;;17.60;99.90;;;;;;5000306;28;20407;-59
2021/08/22 01:44:00;;;;;;;7.90;6.40;;;17.60;99.90;;;;;;5000901;28;20431;-59
2021/08/22 01:46:52;;;;;;;8.47;6.37;;;17.60;99.90;;;;;;5002928;28;20439;-60
2021/08/22 01:49:38;;;;;;;10.97;7.07;;;17.60;99.90;;;;;;4995264;28;20442;-60
2021/08/22 01:52:08;;;;;;;10.00;6.83;;;17.50;99.90;;;;;;5010785;28;20857;-59
2021/08/22 01:54:36;;;;;;;8.97;6.30;;;17.60;99.90;;;;;;5005021;28;20467;-59
2021/08/22 01:57:15;;;;;;;9.60;6.00;;;17.50;99.90;;;;;;4991876;28;20401;-60
2021/08/22 01:59:47;;;;;;;5.73;5.07;;;17.50;99.90;;;;;;4991280;28;20416;-59
2021/08/22 02:02:15;;;;;;;9.90;6.00;;;17.50;99.90;;;;;;5006541;28;20428;-59
2021/08/22 02:04:50;;;;;;;9.60;5.90;;;17.50;99.90;;;;;;5009660;28;20863;-59
2021/08/22 02:07:29;;;;;;;8.30;5.73;;;17.40;99.90;;;;;;5010677;28;20465;-59
2021/08/22 02:10:18;;;;;;;10.03;6.83;;;17.40;99.90;;;;;;5010697;28;20392;-59
2021/08/22 02:12:51;;;;;;;9.77;6.43;;;17.30;99.90;;;;;;4994564;28;20467;-59
2021/08/22 02:15:27;;;;;;;10.00;6.70;;;17.30;99.90;;;;;;5003738;28;20491;-59
2021/08/22 02:18:16;;;;;;;9.63;6.43;;;17.30;99.90;;;;;;5014456;28;20422;-62
2021/08/22 02:20:54;;;;;;;8.70;6.20;;;17.20;99.90;;;;;;4994007;28;20426;-59
2021/08/22 02:23:23;;;;;;;12.50;6.20;;;17.20;99.90;;;;;;4978059;28;20673;-59
2021/08/22 02:25:49;;;;;;;8.87;6.17;;;17.20;99.90;;;;;;4996116;28;20424;-59
2021/08/22 02:28:19;;;;;;;9.93;6.83;;;17.20;99.90;;;;;;4995443;28;20495;-59
2021/08/22 02:30:51;;;;;;;10.47;6.70;;;17.10;99.90;;;;;;4993279;28;20224;-60
2021/08/22 02:33:19;;;;;;;9.63;6.00;;;17.10;99.90;;;;;;4992542;28;20447;-59
2021/08/22 02:35:53;;;;;;;9.83;7.07;;;17.10;99.90;;;;;;5008909;28;20788;-59
2021/08/22 02:38:32;;;;;;;9.43;7.47;;;17.10;99.90;;;;;;4998500;28;20562;-57
2021/08/22 02:41:39;;;;;;;7.87;6.30;;;17.10;99.90;;;;;;4995057;28;20416;-59
2021/08/22 02:44:04;;;;;;;10.30;5.77;;;17.20;99.90;;;;;;5010252;28;20442;-59
2021/08/22 02:46:33;;;;;;;11.33;7.03;;;17.20;99.90;;;;;;5009072;28;20435;-58
2021/08/22 02:48:58;;;;;;;10.63;6.50;;;17.20;99.90;;;;;;4972556;28;20283;-59
2021/08/22 02:51:44;;;;;;;9.50;7.00;;;17.20;99.90;;;;;;5000481;28;20458;-59
2021/08/22 02:54:13;;;;;;;10.07;6.67;;;17.20;99.90;;;;;;4989908;28;20196;-59
2021/08/22 02:56:41;;;;;;;10.17;6.23;;;17.20;99.90;;;;;;4990168;28;20431;-60
2021/08/22 02:59:34;;;;;;;7.60;6.10;;;17.20;99.90;;;;;;4988172;28;20538;-58
2021/08/22 03:02:03;;;;;;;8.90;7.30;;;17.20;99.90;;;;;;5008070;28;20455;-59
2021/08/22 03:04:34;;;;;;;9.43;6.03;;;17.30;99.90;;;;;;5005193;28;20472;-60
2021/08/22 03:07:00;;;;;;;16.00;7.43;;;17.20;99.90;;;;;;4990598;28;20396;-59
2021/08/22 03:09:25;;;;;;;9.40;7.10;;;17.20;99.90;;;;;;4999736;28;20531;-59
2021/08/22 03:12:11;;;;;;;9.90;6.07;;;17.20;99.90;;;;;;5010027;28;20259;-59
2021/08/22 03:14:39;;;;;;;9.93;6.93;;;17.20;99.90;;;;;;4991149;28;20189;-59
2021/08/22 03:17:05;;;;;;;9.33;6.23;;;17.20;99.90;;;;;;4972891;28;20435;-59
2021/08/22 03:19:30;;;;;;;7.20;6.03;;;17.20;99.90;;;;;;5000376;28;20447;-60
2021/08/22 03:22:02;;;;;;;9.80;7.03;;;17.20;99.90;;;;;;5009509;28;20208;-59
2021/08/22 03:24:31;;;;;;;9.20;6.80;;;17.20;99.90;;;;;;4998943;28;20195;-60
2021/08/22 03:26:59;;;;;;;10.33;6.97;;;17.20;99.90;;;;;;5008758;28;20486;-58
2021/08/22 03:29:28;;;;;;;10.93;6.73;;;17.10;99.90;;;;;;5009191;28;20454;-59
2021/08/22 03:31:56;;;;;;;8.50;6.40;;;17.10;99.90;;;;;;4999801;28;20555;-59
2021/08/22 03:34:27;;;;;;;9.87;6.40;;;17.00;99.90;;;;;;4972839;28;20910;-59
2021/08/22 03:36:53;;;;;;;10.50;6.30;;;17.00;99.90;;;;;;4990057;28;20451;-59
2021/08/22 03:39:19;;;;;;;8.10;6.27;;;17.00;99.90;;;;;;4996036;28;20495;-58
2021/08/22 03:41:44;;;;;;;18.20;6.60;;;17.00;99.90;;;;;;4996211;28;20176;-59
2021/08/22 03:44:10;;;;;;;11.10;6.43;;;16.90;99.90;;;;;;5009010;28;20674;-59
2021/08/22 03:46:36;;;;;;;9.63;6.73;;;16.90;99.90;;;;;;5010763;28;20185;-59
2021/08/22 03:49:01;;;;;;;10.80;7.23;;;16.90;99.90;;;;;;5001068;28;20229;-59
2021/08/22 03:51:27;;;;;;;9.83;7.20;;;16.90;99.90;;;;;;5009484;28;20200;-60
2021/08/22 03:53:53;;;;;;;9.40;6.60;;;16.90;99.90;;;;;;5010152;28;20172;-59
2021/08/22 03:56:18;;;;;;;10.67;7.47;;;16.90;99.90;;;;;;5009779;28;20173;-59
2021/08/22 03:58:44;;;;;;;10.47;7.57;;;16.90;99.90;;;;;;4998565;28;20274;-59
2021/08/22 04:01:10;;;;;;;10.03;6.80;;;16.80;99.90;;;;;;5007983;28;20203;-59
2021/08/22 04:03:39;;;;;;;13.53;6.97;;;16.80;99.90;;;;;;5009307;28;20204;-60
2021/08/22 04:06:06;;;;;;;14.20;6.97;;;16.80;99.90;;;;;;5005284;28;20551;-58
2021/08/22 04:08:36;;;;;;;10.50;6.80;;;16.90;99.90;;;;;;5011688;28;20443;-59
2021/08/22 04:11:02;;;;;;;9.33;6.73;;;16.80;99.90;;;;;;5014374;28;20404;-59
2021/08/22 04:13:28;;;;;;;11.93;6.50;;;16.80;99.90;;;;;;4995597;28;20465;-59
2021/08/22 04:15:53;;;;;;;6.50;5.50;;;16.80;99.90;;;;;;4997273;28;20208;-59
2021/08/22 04:18:19;;;;;;;8.73;6.40;;;16.80;99.90;;;;;;5008623;28;20204;-58
2021/08/22 04:20:45;;;;;;;8.63;6.60;;;16.70;99.90;;;;;;5013395;28;20172;-59
2021/08/22 04:23:11;;;;;;;9.50;6.33;;;16.70;99.90;;;;;;5013251;28;20183;-59
2021/08/22 04:25:37;;;;;;;9.70;6.33;;;16.70;99.90;;;;;;4997465;28;20185;-59
2021/08/22 04:28:04;;;;;;;14.67;6.53;;;16.70;99.90;;;;;;4997599;28;20821;-58
2021/08/22 04:30:30;;;;;;;10.03;6.00;;;16.70;99.90;;;;;;5012729;28;20226;-59
2021/08/22 04:32:55;;;;;;;6.60;5.67;;;16.70;99.90;;;;;;5003437;28;20468;-59
2021/08/22 04:35:21;;;;;;;7.87;6.60;;;16.70;99.90;;;;;;5008900;28;20179;-59
2021/08/22 04:37:47;;;;;;;12.93;6.60;;;16.60;99.90;;;;;;5011913;28;20540;-55
2021/08/22 04:40:12;;;;;;;12.77;6.67;;;16.60;99.90;;;;;;5006512;28;20180;-59
2021/08/22 04:42:38;;;;;;;9.57;6.70;;;16.60;99.90;;;;;;5005102;28;20271;-59
2021/08/22 04:45:04;;;;;;;9.13;7.13;;;16.60;99.90;;;;;;4993168;28;20169;-59
2021/08/22 04:47:30;;;;;;;10.17;6.20;;;16.70;99.90;;;;;;5004702;28;20208;-59
2021/08/22 04:49:56;;;;;;;8.43;6.43;;;16.60;99.90;;;;;;5011925;28;20423;-59
2021/08/22 04:52:21;;;;;;;8.17;6.30;;;16.60;99.90;;;;;;5011551;28;20226;-59
2021/08/22 04:54:47;;;;;;;11.50;6.63;;;16.70;99.90;;;;;;5012532;28;20188;-59
2021/08/22 04:57:13;;;;;;;10.83;6.70;;;16.70;99.90;;;;;;5010329;28;20161;-59
2021/08/22 04:59:38;;;;;;;10.03;6.40;;;16.70;99.90;;;;;;5008135;28;20656;-59
2021/08/22 05:02:05;;;;;;;9.53;6.30;;;16.70;99.90;;;;;;5012059;28;20185;-60
2021/08/22 05:04:31;;;;;;;8.93;6.07;;;16.70;99.90;;;;;;5012254;28;20660;-60
2021/08/22 05:06:57;;;;;;;8.17;6.50;;;16.70;99.90;;;;;;4992834;28;20499;-59
2021/08/22 05:09:22;;;;;;;7.83;5.83;;;16.70;99.90;;;;;;5007196;28;20883;-59
2021/08/22 05:11:48;;;;;;;9.90;6.33;;;16.80;99.90;;;;;;5012049;28;20245;-60
2021/08/22 05:14:14;;;;;;;9.40;6.33;;;16.80;99.90;;;;;;4994567;28;20175;-58
2021/08/22 05:16:41;;;;;;;15.20;6.97;;;16.80;99.90;;;;;;5003008;28;20215;-59
2021/08/22 05:19:07;;;;;;;12.03;7.10;;;16.90;99.90;;;;;;4992340;28;20200;-60
2021/08/22 05:21:33;;;;;;;10.07;6.40;;;16.90;99.90;;;;;;5007736;28;20407;-58
2021/08/22 05:23:58;;;;;;;15.10;6.83;;;16.90;99.90;;;;;;4999779;28;20452;-59
2021/08/22 05:26:25;;;;;;;8.93;6.07;;;16.90;99.90;;;;;;4985095;28;20195;-58
2021/08/22 05:28:51;;;;;;;10.57;7.30;;;16.90;99.90;;;;;;5003562;28;20235;-61
2021/08/22 05:31:17;;;;;;;7.77;6.27;;;16.90;99.90;;;;;;4993587;28;20455;-61
2021/08/22 05:33:44;;;;;;;10.30;7.33;;;17.00;99.90;;;;;;4994124;28;20180;-59
2021/08/22 05:36:20;;;;;;;9.20;7.00;;;17.00;99.90;;;;;;4991987;28;20196;-59
2021/08/22 05:38:47;;;;;;;14.23;7.70;;;17.00;99.90;;;;;;5011598;28;20423;-59
2021/08/22 05:41:13;;;;;;;10.30;7.33;;;17.10;99.90;;;;;;5006887;28;20427;-59
2021/08/22 05:43:39;;;;;;;9.00;6.80;;;17.10;99.90;;;;;;5011201;28;20473;-59
2021/08/22 05:46:05;;;;;;;11.10;7.03;;;17.20;99.90;;;;;;5011217;28;20168;-59
2021/08/22 05:48:33;;;;;;;9.47;7.50;;;17.20;99.90;;;;;;4987016;28;20817;-59
2021/08/22 05:50:59;;;;;;;9.87;6.80;;;17.20;99.90;;;;;;5001561;28;20419;-59
2021/08/22 05:53:25;;;;;;;11.47;6.33;;;17.20;99.90;;;;;;5011287;28;20454;-59
2021/08/22 05:55:50;;;;;;;10.20;7.40;;;17.30;99.90;;;;;;5011387;28;20822;-59
2021/08/22 05:58:16;;;;;;;9.50;6.50;;;17.30;99.90;;;;;;4994253;28;20686;-59
2021/08/22 06:00:42;;;;;;;9.90;6.90;;;17.40;99.90;;;;;;5011180;28;20685;-59
2021/08/22 06:03:07;;;;;;;8.80;5.93;;;17.40;99.90;;;;;;4992962;28;20228;-58
2021/08/22 06:05:33;;;;;;;8.20;6.30;;;17.40;99.90;;;;;;5009629;28;20247;-59
2021/08/22 06:07:58;;;;;;;8.50;7.07;;;17.50;99.90;;;;;;5009841;28;20196;-60
2021/08/22 06:10:24;;;;;;;8.90;6.47;;;17.50;99.90;;;;;;5010577;28;20652;-59
2021/08/22 06:12:50;;;;;;;8.47;6.20;;;17.50;99.90;;;;;;5004807;28;20666;-59
2021/08/22 06:15:15;;;;;;;9.47;6.23;;;17.60;99.90;;;;;;5005158;28;20169;-59
2021/08/22 06:17:41;;;;;;;7.77;5.97;;;17.60;99.90;;;;;;5012722;28;20605;-61
2021/08/22 06:20:07;;;;;;;10.33;6.10;;;17.70;99.90;;;;;;5010008;28;20169;-59
2021/08/22 06:22:33;;;;;;;8.00;6.00;;;17.70;99.90;;;;;;4978158;28;20724;-58
2021/08/22 06:24:58;;;;;;;10.13;6.27;;;17.70;99.90;;;;;;4990557;28;20495;-59
2021/08/22 06:27:24;;;;;;;7.90;5.73;;;17.70;99.90;;;;;;4973798;28;20545;-58
2021/08/22 06:29:50;;;;;;;8.67;6.17;;;17.80;99.90;;;;;;4994306;28;20176;-60
2021/08/22 06:32:15;;;;;;;8.77;6.20;;;17.80;99.90;;;;;;5010018;28;20196;-59
2021/08/22 06:34:41;;;;;;;8.90;5.60;;;17.80;99.90;;;;;;4992073;28;20361;-59
2021/08/22 06:37:09;;;;;;;8.37;5.50;;;17.80;99.90;;;;;;5010038;28;20208;-59
2021/08/22 06:39:40;;;;;;;7.83;5.70;;;17.90;99.90;;;;;;4992033;28;20673;-60
2021/08/22 06:42:06;;;;;;;9.90;5.87;;;17.90;99.90;;;;;;5010110;28;20936;-59
2021/08/22 06:44:33;;;;;;;8.60;5.80;;;18.00;99.90;;;;;;5009424;28;20428;-60
2021/08/22 06:46:59;;;;;;;10.40;5.40;;;18.00;99.90;;;;;;5004795;28;20518;-59
2021/08/22 06:49:24;;;;;;;8.07;6.50;;;18.10;99.90;;;;;;4990505;28;20483;-59
2021/08/22 06:51:50;;;;;;;8.93;5.57;;;18.10;99.90;;;;;;5009650;28;20906;-58
2021/08/22 06:54:15;;;;;;;8.47;5.83;;;18.20;99.90;;;;;;5010031;28;20251;-59
2021/08/22 06:56:41;;;;;;;7.40;5.67;;;18.20;99.90;;;;;;5002152;28;20181;-58
2021/08/22 06:59:07;;;;;;;9.20;5.90;;;18.30;99.90;;;;;;4989791;28;20706;-60
2021/08/22 07:01:32;;;;;;;7.70;5.70;;;18.30;99.90;;;;;;5007291;28;20242;-60
2021/08/22 07:03:58;;;;;;;9.77;5.27;;;18.40;99.90;;;;;;5009557;28;20192;-58
2021/08/22 07:06:23;;;;;;;6.70;5.57;;;18.40;99.90;;;;;;4999693;28;20721;-58
2021/08/22 07:08:49;;;;;;;9.63;6.00;;;18.40;99.90;;;;;;5009450;28;20290;-59
2021/08/22 07:11:15;;;;;;;8.40;6.00;;;18.40;99.90;;;;;;5009044;28;20215;-59
2021/08/22 07:13:40;;;;;;;7.00;5.20;;;18.50;99.90;;;;;;5008830;28;20164;-58
2021/08/22 07:16:06;;;;;;;8.20;5.60;;;18.40;99.90;;;;;;4999237;28;20177;-60
2021/08/22 07:18:32;;;;;;;6.67;5.33;;;18.40;99.90;;;;;;4972333;28;20653;-59
2021/08/22 07:20:58;;;;;;;9.67;6.53;;;18.40;99.90;;;;;;4972299;28;20174;-60
2021/08/22 07:23:24;;;;;;;8.40;5.83;;;18.50;99.90;;;;;;5003680;28;20438;-60
2021/08/22 07:25:51;;;;;;;9.07;5.63;;;18.50;99.90;;;;;;5007418;28;20254;-59
2021/08/22 07:28:17;;;;;;;7.00;5.27;;;18.50;99.90;;;;;;5002910;28;20208;-59
2021/08/22 07:30:42;;;;;;;8.27;5.80;;;18.50;99.90;;;;;;4996444;28;20442;-59
2021/08/22 07:33:08;;;;;;;7.03;5.10;;;18.50;99.90;;;;;;5014857;28;20207;-59
2021/08/22 07:35:34;;;;;;;8.77;5.80;;;18.50;99.90;;;;;;5019620;28;20199;-59
2021/08/22 07:37:59;;;;;;;7.20;5.10;;;18.50;99.90;;;;;;5004513;28;20204;-59
2021/08/22 07:40:25;;;;;;;7.50;5.40;;;18.50;99.90;;;;;;4996785;28;20200;-60
2021/08/22 07:42:51;;;;;;;6.47;5.37;;;18.60;99.90;;;;;;5007882;28;20190;-60
2021/08/22 07:45:16;;;;;;;6.20;5.10;;;18.60;99.90;;;;;;5006883;28;20234;-59
2021/08/22 07:47:44;;;;;;;6.70;5.33;;;18.60;99.90;;;;;;5009729;28;20211;-59
2021/08/22 07:50:09;;;;;;;7.60;5.57;;;18.60;99.90;;;;;;5012798;28;20191;-59
2021/08/22 07:52:35;;;;;;;6.70;5.13;;;18.60;99.90;;;;;;5013021;28;20447;-59
2021/08/22 07:55:01;;;;;;;7.73;5.20;;;18.60;99.90;;;;;;4994905;28;20169;-58
2021/08/22 07:57:27;;;;;;;7.03;5.20;;;18.60;99.90;;;;;;4994279;28;20240;-59
2021/08/22 07:59:52;;;;;;;6.03;4.83;;;18.70;99.90;;;;;;5012143;28;20802;-59
2021/08/22 08:02:20;;;;;;;7.63;5.83;;;18.70;99.90;;;;;;5012593;28;20172;-59
2021/08/22 08:04:45;;;;;;;7.70;5.70;;;18.70;99.90;;;;;;5004105;28;20181;-60
2021/08/22 08:07:11;;;;;;;9.40;5.27;;;18.70;99.90;;;;;;5012860;28;20533;-60
2021/08/22 08:09:37;;;;;;;6.73;4.67;;;18.80;99.90;;;;;;4995147;28;20208;-58
2021/08/22 08:12:02;;;;;;;7.80;4.87;;;18.80;99.90;;;;;;4987998;28;20236;-59
2021/08/22 08:14:28;;;;;;;7.37;5.20;;;18.80;99.90;;;;;;4994315;28;20216;-59
2021/08/22 08:16:54;;;;;;;11.60;4.90;;;18.80;99.90;;;;;;5012074;28;20168;-59
2021/08/22 08:19:19;;;;;;;7.70;5.37;;;18.80;99.90;;;;;;5011915;28;20204;-59
2021/08/22 08:21:45;;;;;;;6.23;5.10;;;18.80;99.90;;;;;;4999231;28;20183;-58
2021/08/22 08:24:11;;;;;;;6.20;4.90;;;18.80;99.90;;;;;;5015591;28;20180;-59
2021/08/22 08:26:36;;;;;;;5.50;4.37;;;18.80;99.90;;;;;;5012031;28;20184;-59
2021/08/22 08:29:02;;;;;;;11.43;5.00;;;18.80;99.90;;;;;;5004830;28;20695;-59
2021/08/22 08:31:28;;;;;;;7.80;4.50;;;18.80;99.90;;;;;;4993894;28;20166;-59
2021/08/22 08:33:53;;;;;;;10.30;5.30;;;18.80;99.90;;;;;;5012349;28;20438;-59
2021/08/22 08:36:19;;;;;;;6.63;5.50;;;18.80;99.90;;;;;;5006559;28;20749;-59
2021/08/22 08:38:45;;;;;;;6.80;5.60;;;18.80;99.90;;;;;;5011563;28;20231;-59
2021/08/22 08:41:10;;;;;;;5.37;4.70;;;18.80;99.90;;;;;;5012477;28;20541;-59
2021/08/22 08:43:37;;;;;;;4.90;4.10;;;18.80;99.90;;;;;;5012252;28;20681;-59
2021/08/22 08:46:31;;;;;;;5.07;4.40;;;18.90;99.90;;;;;;5009457;28;20177;-59
2021/08/22 08:49:26;;;;;;;5.90;4.83;;;18.90;99.90;;;;;;4996936;28;20442;-59
2021/08/22 08:52:03;;;;;;;7.33;5.00;;;18.90;99.90;;;;;;5012028;28;20482;-59
2021/08/22 08:54:31;;;;;;;5.20;4.00;;;19.00;99.90;;;;;;5004350;28;20839;-59
2021/08/22 08:57:00;;;;;;;6.90;4.67;;;19.00;99.90;;;;;;4995568;28;20420;-59
2021/08/22 08:59:26;;;;;;;6.40;4.80;;;19.00;99.90;;;;;;5011551;28;20490;-59
2021/08/22 09:01:52;;;;;;;6.63;4.93;;;19.10;99.90;;;;;;5006566;28;20503;-58
2021/08/22 09:04:27;;;;;;;7.53;5.37;;;19.10;99.90;;;;;;4992324;28;20173;-59
2021/08/22 09:07:15;;;;;;;6.70;5.10;;;19.10;99.90;;;;;;4986826;28;20493;-59
2021/08/22 09:10:18;;;;;;;7.17;5.00;;;19.20;99.90;;;;;;4993730;28;20811;-59
2021/08/22 09:13:21;;;;;;;7.63;4.80;;;19.30;99.90;;;;;;5011152;28;20501;-59
2021/08/22 09:16:07;;;;;;;5.57;4.43;;;19.40;99.90;;;;;;4992361;28;20404;-59
2021/08/22 09:18:57;;;;;;;6.63;4.73;;;19.60;99.90;;;;;;4942198;28;20813;-58
2021/08/22 09:21:41;;;;;;;6.10;4.50;;;19.70;99.90;;;;;;4991822;28;20428;-59
2021/08/22 09:24:31;;;;;;;8.07;5.00;;;19.80;99.90;;;;;;4988312;28;20562;-58
2021/08/22 09:27:34;;;;;;;6.97;4.77;;;19.70;99.90;;;;;;5010002;28;20456;-58
2021/08/22 09:30:39;;;;;;;6.87;4.90;;;19.60;99.90;;;;;;4996109;28;20919;-59
2021/08/22 09:33:42;;;;;;;5.37;4.60;;;19.60;99.90;;;;;;4950274;28;20495;-58
2021/08/22 09:36:31;;;;;;;6.63;5.30;;;19.60;99.90;;;;;;5002021;28;21136;-59
2021/08/22 09:39:34;;;;;;;5.03;4.47;;;19.60;99.90;;;;;;4999145;28;20479;-58
2021/08/22 09:42:37;;;;;;;5.87;4.30;;;19.60;99.90;;;;;;5011546;28;20403;-59
2021/08/22 09:45:34;;;;;;;5.33;4.47;;;19.60;99.90;;;;;;4994324;28;20434;-58
2021/08/22 09:48:37;;;;;;;6.80;5.30;;;19.60;99.90;;;;;;4991116;28;20457;-59
2021/08/22 09:51:09;;;;;;;5.07;4.30;;;19.60;99.90;;;;;;4991178;28;20400;-59
2021/08/22 09:53:46;;;;;;;8.77;4.67;;;19.60;99.90;;;;;;4991168;28;21025;-59
2021/08/22 09:56:49;;;;;;;5.40;4.50;;;19.70;99.90;;;;;;4979749;28;20431;-58
2021/08/22 09:59:17;;;;;;;8.67;5.63;;;19.70;99.90;;;;;;5010304;28;20434;-59
2021/08/22 10:02:20;;;;;;;6.30;4.23;;;19.80;99.90;;;;;;5010526;28;20403;-58
2021/08/22 10:04:58;;;;;;;6.33;4.73;;;19.80;99.90;;;;;;5009313;28;21021;-58
2021/08/22 10:07:44;;;;;;;4.80;4.30;;;19.80;99.90;;;;;;4992224;28;20431;-59
2021/08/22 10:10:24;;;;;;;8.03;4.70;;;19.90;99.90;;;;;;5009636;28;20434;-60
2021/08/22 10:12:50;;;;;;;6.30;4.30;;;19.90;99.90;;;;;;5007303;28;20511;-58
2021/08/22 10:15:20;;;;;;;5.80;5.00;;;20.00;99.90;;;;;;5006922;28;20954;-58
2021/08/22 10:17:49;;;;;;;7.37;4.60;;;20.00;99.90;;;;;;5013046;28;20188;-62
2021/08/22 10:20:17;;;;;;;5.70;4.57;;;20.10;99.90;;;;;;5010168;28;20812;-59
2021/08/22 10:22:43;;;;;;;5.23;4.70;;;20.10;99.90;;;;;;4994229;28;20531;-58
2021/08/22 10:25:17;;;;;;;8.90;5.00;;;20.20;99.90;;;;;;5005254;28;20445;-57
2021/08/22 10:27:47;;;;;;;5.23;3.90;;;20.20;99.90;;;;;;5019075;28;20442;-58
2021/08/22 10:30:22;;;;;;;5.80;4.67;;;20.20;99.90;;;;;;4999645;28;20428;-58
2021/08/22 10:32:57;;;;;;;8.17;4.63;;;20.10;99.90;;;;;;5009598;28;20451;-58
2021/08/22 10:35:29;;;;;;;5.13;4.50;;;20.10;99.90;;;;;;5007849;28;20442;-59
2021/08/22 10:37:55;;;;;;;4.50;4.10;;;20.10;99.90;;;;;;5001561;28;20451;-57
2021/08/22 10:40:24;;;;;;;7.67;4.50;;;20.20;99.90;;;;;;4995799;28;20428;-59
2021/08/22 10:43:05;;;;;;;8.20;4.67;;;20.20;99.90;;;;;;4990448;28;20608;-57
2021/08/22 10:45:40;;;;;;;8.33;4.87;;;20.30;99.90;;;;;;5006631;28;20888;-58
2021/08/22 10:48:15;;;;;;;5.70;4.57;;;20.30;99.90;;;;;;5008564;28;20445;-58
2021/08/22 10:51:10;;;;;;;6.23;4.40;;;20.40;99.90;;;;;;5005766;28;20947;-59
2021/08/22 10:53:37;;;;;;;5.53;3.83;;;20.50;99.90;;;;;;4992920;28;20481;-59
2021/08/22 10:56:21;;;;;;;6.30;4.50;;;20.50;99.90;;;;;;5009723;28;20755;-59
2021/08/22 10:58:55;;;;;;;4.83;4.30;;;20.50;99.90;;;;;;5000908;28;20474;-58
2021/08/22 11:01:21;;;;;;;5.40;3.90;;;20.50;99.90;;;;;;5008850;28;20513;-58
2021/08/22 11:04:06;;;;;;;6.03;4.60;;;20.60;99.90;;;;;;5008902;28;20549;-59
2021/08/22 11:06:33;;;;;;;8.00;4.27;;;20.70;99.90;;;;;;5009250;28;20169;-58
2021/08/22 11:08:59;;;;;;;6.00;3.90;;;20.90;99.90;;;;;;4992457;28;20964;-58
2021/08/22 11:11:24;;;;;;;7.03;4.43;;;21.10;99.90;;;;;;5001345;28;20450;-59
2021/08/22 11:13:55;;;;;;;5.93;4.43;;;21.20;99.00;;;;;;5009572;28;20164;-58
2021/08/22 11:16:37;;;;;;;4.80;3.97;;;21.20;98.00;;;;;;5006098;28;20181;-58
2021/08/22 11:19:04;;;;;;;4.77;4.00;;;21.20;99.00;;;;;;4989052;28;20423;-58
2021/08/22 11:21:30;;;;;;;6.30;4.30;;;21.30;99.20;;;;;;5001881;28;20431;-59
2021/08/22 11:24:00;;;;;;;6.40;4.60;;;21.30;98.40;;;;;;5009000;28;20474;-58
2021/08/22 11:26:27;;;;;;;5.30;3.83;;;21.20;97.70;;;;;;4997954;28;20189;-58
2021/08/22 11:28:57;;;;;;;4.80;4.10;;;21.20;96.50;;;;;;5009011;28;20461;-58
2021/08/22 11:31:26;;;;;;;7.67;4.30;;;21.10;96.70;;;;;;5008950;28;20408;-58
2021/08/22 11:33:52;;;;;;;6.90;4.70;;;21.10;96.10;;;;;;5008484;28;20422;-59
2021/08/22 11:36:25;;;;;;;6.03;3.63;;;21.00;95.00;;;;;;5009380;28;20466;-57
2021/08/22 11:39:11;;;;;;;6.60;4.30;;;21.00;95.00;;;;;;5008107;28;20192;-59
2021/08/22 11:41:39;;;;;;;4.20;3.73;;;21.00;95.00;;;;;;5004255;28;20475;-59
2021/08/22 11:44:05;;;;;;;4.50;3.97;;;20.90;94.10;;;;;;4991589;28;20424;-58
2021/08/22 11:46:31;;;;;;;4.93;4.37;;;20.90;94.20;;;;;;5008630;28;20419;-59
2021/08/22 11:48:58;;;;;;;5.37;4.20;;;20.90;93.80;;;;;;5008373;28;21062;-58
2021/08/22 11:51:24;;;;;;;6.30;5.30;;;20.90;92.70;;;;;;5000071;28;20181;-60
2021/08/22 11:53:50;;;;;;;10.43;7.47;;;20.80;93.10;;;;;;5009275;28;20478;-57
2021/08/22 11:56:23;;;;;;;7.57;5.27;;;20.80;93.20;;;;;;5008547;28;20657;-58
2021/08/22 11:58:49;;;;;;;7.57;4.93;;;20.80;93.60;;;;;;5008870;28;20224;-59
2021/08/22 12:01:19;;;;;;;6.00;4.03;;;20.80;94.00;;;;;;4996924;28;20547;-58
2021/08/22 12:04:01;;;;;;;6.10;4.20;;;20.80;93.90;;;;;;4999576;28;20423;-59
2021/08/22 12:06:30;;;;;;;6.73;4.30;;;20.80;93.60;;;;;;5007888;28;20420;-59
2021/08/22 12:08:56;;;;;;;5.23;3.70;;;20.80;94.60;;;;;;5009404;28;20452;-59
2021/08/22 12:11:23;;;;;;;4.27;3.87;;;20.80;94.40;;;;;;5028579;28;20406;-58
2021/08/22 12:13:52;;;;;;;3.93;3.40;;;20.80;93.20;;;;;;5016274;28;20459;-59
2021/08/22 12:16:34;;;;;;;4.97;4.17;;;20.90;94.00;;;;;;4988466;28;20419;-59
2021/08/22 12:19:19;;;;;;;4.03;3.17;;;21.00;94.50;;;;;;4988933;28;20944;-59
2021/08/22 12:21:46;;;;;;;3.63;2.90;;;21.10;94.10;;;;;;4994719;28;20418;-59
2021/08/22 12:24:23;;;;;;;8.57;6.10;;;21.10;93.20;;;;;;4990941;28;20419;-58
2021/08/22 12:26:51;;;;;;;3.50;2.60;;;21.20;91.70;;;;;;4994888;28;20439;-58
2021/08/22 12:29:24;;;;;;;4.67;3.00;;;21.20;91.00;;;;;;5007933;28;20578;-59
2021/08/22 12:31:52;;;;;;;3.50;2.80;;;21.20;90.50;;;;;;4992535;28;20485;-59
2021/08/22 12:34:19;;;;;;;3.50;2.80;;;21.20;90.30;;;;;;5007169;28;20432;-59
2021/08/22 12:36:46;;;;;;;3.47;2.90;;;21.20;88.40;;;;;;5011835;28;20920;-59
2021/08/22 12:39:14;;;;;;;4.17;3.27;;;21.20;90.00;;;;;;5012033;28;20907;-58
2021/08/22 12:41:44;;;;;;;5.80;2.93;;;21.20;88.90;;;;;;5011730;28;20425;-59
2021/08/22 12:44:13;;;;;;;4.83;3.23;;;21.10;88.30;;;;;;4995399;28;20437;-59
2021/08/22 12:46:40;;;;;;;7.30;5.23;;;21.10;86.90;;;;;;5011622;28;20791;-57
2021/08/22 12:49:07;;;;;;;6.07;4.23;;;21.10;89.40;;;;;;5011548;28;20493;-59
2021/08/22 12:51:33;;;;;;;5.53;4.00;;;21.20;90.30;;;;;;5011357;28;20932;-59
2021/08/22 12:53:59;;;;;;;4.03;3.20;;;21.20;88.80;;;;;;4994016;28;20486;-59
2021/08/22 12:56:26;;;;;;;3.27;2.70;;;21.30;91.40;;;;;;4993849;28;20427;-59
2021/08/22 12:58:53;;;;;;;3.97;2.90;;;21.40;86.90;;;;;;5011642;28;20443;-58
2021/08/22 13:01:23;;;;;;;5.70;3.27;;;21.40;84.20;;;;;;5006871;28;20428;-55
2021/08/22 13:03:51;;;;;;;5.03;2.63;;;21.30;79.60;;;;;;4978863;28;20435;-58
2021/08/22 13:06:17;;;;;;;3.80;3.03;;;21.20;82.10;;;;;;5010994;28;20431;-59
2021/08/22 13:08:43;;;;;;;4.50;3.40;;;21.20;83.30;;;;;;5010943;28;20439;-58